メインページ
METAR-TAF:

METAR-TAF

空港 :

ムルタラ・モハンマド国際空港

ラゴス, ナイジェリア

緯度: 06-35N, 経度: 003-20E, 海抜: 40m

現時点の気象観測

当レポートは6時間10分前の01:00(UTC)に作成
変向風 2kt
気温 23°C
湿度 100%
気圧 1013 hPa
視程10km以上
高度700ftの雲はほとんどない

METAR: DNMM 190100Z VRB02KT 9999 FEW007 23/23 Q1013 NOSIG

時間: 08:10 (07:10 UTC)

予報

当レポートは9時間20分前の21:50(UTC)に作成
予報は19日の 00時(UTC)から 20日の 06時(UTC)まで有効
変向風 2kt
視程: 8000m
高度900ftの雲は散在している
確率 30% :
19日の 05時(UTC)から 19日の 08時(UTC)まで一時的に
視程: 5000m
高度800ftの千切れ雲あり
高度1900ftの雲はほとんどない, 積乱雲.
小雨
19日の 08時(UTC)から 19日の 10時(UTC)まで徐々に
南西の風 10kt
高度1300ftの千切れ雲あり
高度2000ftの雲はほとんどない, 積乱雲.

TAF: DNMM 182150Z 1900/2006 VRB02KT 8000 SCT009 PROB30 TEMPO 1905/1908 5000 -RA BKN008 FEW019CB BECMG 1908/1910 22010KT BKN013 FEW020CB

4,000以上の空港の気象観測と天気予報(METAR報とTAF報)

利用可能な観測所は地図上に黄色い丸と赤い丸で示す。

丸の上にカーソルを重ねると観測所名を参照できる。

次にクリックすると気象観測と天気予報を参照できる。

マップの切り替え:黒色「×」印の緑ボタンをクリックして拡大、「-」印の緑ボタンをクリックして縮小、緑色の三角印をクリックして隣りの地図に切り替え


METAR-TAF: